createdAt,value
2018-11-13T00:00:25.035Z,63.40
2018-11-13T00:02:54.509Z,61.67
2018-11-13T00:05:24.047Z,61.79
2018-11-13T00:07:53.048Z,62.74
2018-11-13T00:10:22.127Z,61.81
2018-11-13T00:12:51.114Z,62.84
2018-11-13T00:15:20.115Z,61.67
2018-11-13T00:17:49.355Z,63.45
2018-11-13T00:20:19.245Z,62.39
2018-11-13T00:22:48.290Z,62.07
2018-11-13T00:25:18.548Z,62.08
2018-11-13T00:27:47.839Z,61.87
2018-11-13T00:30:18.857Z,61.45
2018-11-13T00:32:48.109Z,61.92
2018-11-13T00:35:17.827Z,61.96
2018-11-13T00:37:47.407Z,61.43
2018-11-13T00:40:16.943Z,62.55
2018-11-13T00:42:46.548Z,62.20
2018-11-13T00:45:15.840Z,62.53
2018-11-13T00:47:44.803Z,65.37
2018-11-13T00:50:16.322Z,69.58
2018-11-13T00:52:46.273Z,72.85
2018-11-13T00:55:15.398Z,79.69
2018-11-13T00:57:44.728Z,66.59
2018-11-13T01:00:18.229Z,65.92
2018-11-13T01:02:47.189Z,66.30
2018-11-13T01:05:17.685Z,67.43
2018-11-13T01:07:47.835Z,65.33
2018-11-13T01:10:17.718Z,63.09
2018-11-13T01:12:47.451Z,62.74
2018-11-13T01:15:17.623Z,66.26
2018-11-13T01:17:47.339Z,63.10
2018-11-13T01:20:17.235Z,63.46
2018-11-13T01:22:46.241Z,64.76
2018-11-13T01:25:16.189Z,63.35
2018-11-13T01:27:45.551Z,63.13
2018-11-13T01:30:15.535Z,62.83
2018-11-13T01:32:45.088Z,62.98
2018-11-13T01:35:15.703Z,63.46
2018-11-13T01:37:44.845Z,64.19
2018-11-13T01:40:16.709Z,63.09
2018-11-13T01:42:45.823Z,63.34
2018-11-13T01:45:15.915Z,63.42
2018-11-13T01:47:44.895Z,65.24
2018-11-13T01:50:14.415Z,64.09
2018-11-13T01:52:43.439Z,63.12
2018-11-13T01:55:13.518Z,63.35
2018-11-13T01:57:42.513Z,64.42
2018-11-13T02:00:16.694Z,63.31
2018-11-13T02:02:46.972Z,63.95
2018-11-13T02:05:16.534Z,63.47
2018-11-13T02:07:45.937Z,63.53
2018-11-13T02:10:15.342Z,63.12
2018-11-13T02:12:44.718Z,65.53
2018-11-13T02:15:13.721Z,64.69
2018-11-13T02:17:42.699Z,66.23
2018-11-13T02:20:14.574Z,64.09
2018-11-13T02:22:44.294Z,64.67
2018-11-13T02:25:14.756Z,67.21
2018-11-13T02:27:43.987Z,65.51
2018-11-13T02:30:16.543Z,65.54
2018-11-13T02:32:46.138Z,65.92
2018-11-13T02:35:15.576Z,65.95
2018-11-13T02:37:44.964Z,66.06
2018-11-13T02:40:14.137Z,65.22
2018-11-13T02:42:43.177Z,64.52
2018-11-13T02:45:16.303Z,65.02
2018-11-13T02:47:45.407Z,64.88
2018-11-13T02:50:17.078Z,64.69
2018-11-13T02:52:46.125Z,64.63
2018-11-13T02:55:15.533Z,66.31
2018-11-13T02:57:51.144Z,66.65
2018-11-13T03:00:22.027Z,65.82
2018-11-13T03:02:51.216Z,65.32
2018-11-13T03:05:21.338Z,65.51
2018-11-13T03:07:50.328Z,65.73
2018-11-13T03:10:20.343Z,66.66
2018-11-13T03:12:49.640Z,67.73
2018-11-13T03:15:19.711Z,67.96
2018-11-13T03:17:48.754Z,67.96
2018-11-13T03:20:18.982Z,67.54
2018-11-13T03:22:48.437Z,67.40
2018-11-13T03:25:19.716Z,66.51
2018-11-13T03:27:48.707Z,68.21
2018-11-13T03:30:19.727Z,68.65
2018-11-13T03:32:48.727Z,69.57
2018-11-13T03:35:17.689Z,69.53
2018-11-13T03:37:46.681Z,69.53
2018-11-13T03:40:16.163Z,69.89
2018-11-13T03:42:45.963Z,72.43
2018-11-13T03:45:15.611Z,71.40
2018-11-13T03:47:44.655Z,71.45
2018-11-13T03:50:15.772Z,71.93
2018-11-13T03:52:45.326Z,72.19
2018-11-13T03:55:14.810Z,73.39
2018-11-13T03:57:44.547Z,73.41
2018-11-13T04:00:15.093Z,70.83
2018-11-13T04:02:44.090Z,72.56
2018-11-13T04:05:14.225Z,71.85
2018-11-13T04:07:45.502Z,72.74
2018-11-13T04:10:15.531Z,73.34
2018-11-13T04:12:44.631Z,73.27
2018-11-13T04:15:16.112Z,71.87
2018-11-13T04:17:45.146Z,73.39
2018-11-13T04:20:15.740Z,72.34
2018-11-13T04:22:45.023Z,72.68
2018-11-13T04:25:14.242Z,72.28
2018-11-13T04:27:43.225Z,72.62
2018-11-13T04:30:14.552Z,73.79
2018-11-13T04:32:43.690Z,72.68
2018-11-13T04:35:13.718Z,72.17
2018-11-13T04:37:42.699Z,73.10
2018-11-13T04:40:14.788Z,72.54
2018-11-13T04:42:45.347Z,72.87
2018-11-13T04:45:15.600Z,72.22
2018-11-13T04:47:45.842Z,72.68
2018-11-13T04:50:16.191Z,76.13
2018-11-13T04:52:45.431Z,74.82
2018-11-13T04:55:14.727Z,73.33
2018-11-13T04:57:44.523Z,74.44
2018-11-13T05:00:16.544Z,74.13
2018-11-13T05:02:46.253Z,74.06
2018-11-13T05:05:16.691Z,74.46
2018-11-13T05:07:46.494Z,73.51
2018-11-13T05:10:15.463Z,74.03
2018-11-13T05:12:45.283Z,74.20
2018-11-13T05:15:14.252Z,73.82
2018-11-13T05:17:44.034Z,74.17
2018-11-13T05:20:14.022Z,74.56
2018-11-13T05:22:43.260Z,74.88
2018-11-13T05:25:14.809Z,74.44
2018-11-13T05:27:44.239Z,74.69
2018-11-13T05:30:15.848Z,75.22
2018-11-13T05:32:45.074Z,73.78
2018-11-13T05:35:15.277Z,74.24
2018-11-13T05:37:44.760Z,74.00
2018-11-13T05:40:15.853Z,74.73
2018-11-13T05:42:44.827Z,74.32
2018-11-13T05:45:14.966Z,74.20
2018-11-13T05:47:44.014Z,74.88
2018-11-13T05:50:14.358Z,74.66
2018-11-13T05:52:44.246Z,73.88
2018-11-13T05:55:13.652Z,74.90
2018-11-13T05:57:42.661Z,74.50
2018-11-13T06:00:14.758Z,74.79
2018-11-13T06:02:43.749Z,74.91
2018-11-13T06:05:13.319Z,74.98
2018-11-13T06:07:42.404Z,74.54
2018-11-13T06:10:12.426Z,74.69
2018-11-13T06:12:41.463Z,75.11
2018-11-13T06:15:10.671Z,74.79
2018-11-13T06:17:39.696Z,74.74
2018-11-13T06:20:10.937Z,75.33
2018-11-13T06:22:39.929Z,75.03
2018-11-13T06:25:11.470Z,74.97
2018-11-13T06:27:41.753Z,74.95
2018-11-13T06:30:17.990Z,75.13
2018-11-13T06:32:47.525Z,74.20
2018-11-13T06:35:16.536Z,75.29
2018-11-13T06:37:45.551Z,74.92
2018-11-13T06:40:14.733Z,75.73
2018-11-13T06:42:43.784Z,74.49
2018-11-13T06:45:15.397Z,74.71
2018-11-13T06:47:45.145Z,74.67
2018-11-13T06:50:14.157Z,74.68
2018-11-13T06:52:44.082Z,75.34
2018-11-13T06:55:18.288Z,75.52
2018-11-13T06:57:47.495Z,74.84
2018-11-13T07:00:16.467Z,75.45
2018-11-13T07:02:45.526Z,76.50
2018-11-13T07:05:16.093Z,75.59
2018-11-13T07:07:45.690Z,78.71
2018-11-13T07:10:15.905Z,78.25
2018-11-13T07:12:46.463Z,77.10
2018-11-13T07:15:18.125Z,77.24
2018-11-13T07:17:49.008Z,75.81
2018-11-13T07:20:19.096Z,75.57
2018-11-13T07:22:48.177Z,76.50
2018-11-13T07:25:17.226Z,76.26
2018-11-13T07:27:46.831Z,75.37
2018-11-13T07:30:17.880Z,76.00
2018-11-13T07:32:47.099Z,76.43
2018-11-13T07:35:17.180Z,75.46
2018-11-13T07:37:53.898Z,75.72
2018-11-13T07:40:23.093Z,76.07
2018-11-13T07:42:52.381Z,77.21
2018-11-13T07:45:21.478Z,75.90
2018-11-13T07:47:51.033Z,75.70
2018-11-13T07:50:20.184Z,76.15
2018-11-13T07:52:49.470Z,75.18
2018-11-13T07:55:18.841Z,75.50
2018-11-13T07:57:48.037Z,75.64
2018-11-13T08:00:19.726Z,76.05
2018-11-13T08:02:50.992Z,76.36
2018-11-13T08:05:21.078Z,75.69
2018-11-13T08:07:50.103Z,75.37
2018-11-13T08:10:19.323Z,76.27
2018-11-13T08:12:48.938Z,75.99
2018-11-13T08:15:18.327Z,75.71
2018-11-13T08:17:47.361Z,76.00
2018-11-13T08:20:16.742Z,75.85
2018-11-13T08:22:46.309Z,75.53
2018-11-13T08:25:15.342Z,75.67
2018-11-13T08:27:44.452Z,75.58
2018-11-13T08:30:17.357Z,75.69
2018-11-13T08:32:46.930Z,76.16
2018-11-13T08:35:16.194Z,76.00
2018-11-13T08:37:45.436Z,75.24
2018-11-13T08:40:16.142Z,75.35
2018-11-13T08:42:45.795Z,74.89
2018-11-13T08:45:15.335Z,75.66
2018-11-13T08:47:44.469Z,75.81
2018-11-13T08:50:14.309Z,75.46
2018-11-13T08:52:44.679Z,75.72
2018-11-13T08:55:14.001Z,76.09
2018-11-13T08:57:43.216Z,75.49
2018-11-13T09:00:15.747Z,75.74
2018-11-13T09:02:45.330Z,75.91
2018-11-13T09:05:14.784Z,75.58
2018-11-13T09:07:43.921Z,74.96
2018-11-13T09:10:14.489Z,75.97
2018-11-13T09:12:43.860Z,75.36
2018-11-13T09:15:14.986Z,76.11
2018-11-13T09:17:44.065Z,75.40
2018-11-13T09:20:14.322Z,75.89
2018-11-13T09:22:43.368Z,75.61
2018-11-13T09:25:14.126Z,75.41
2018-11-13T09:27:43.336Z,75.84
2018-11-13T09:30:15.460Z,76.13
2018-11-13T09:32:44.817Z,76.19
2018-11-13T09:35:14.894Z,75.67
2018-11-13T09:37:44.018Z,75.66
2018-11-13T09:40:15.273Z,77.15
2018-11-13T09:42:46.778Z,75.82
2018-11-13T09:45:16.308Z,76.12
2018-11-13T09:47:45.371Z,75.55
2018-11-13T09:50:16.189Z,75.45
2018-11-13T09:52:46.561Z,75.99
2018-11-13T09:55:16.822Z,75.94
2018-11-13T09:57:45.810Z,75.14
2018-11-13T10:00:17.558Z,75.97
2018-11-13T10:02:51.110Z,76.65
2018-11-13T10:05:20.638Z,76.21
2018-11-13T10:07:49.957Z,76.11
2018-11-13T10:10:18.983Z,75.62
2018-11-13T10:12:48.218Z,75.53
2018-11-13T10:15:18.880Z,75.36
2018-11-13T10:17:48.172Z,75.57
2018-11-13T10:20:17.539Z,75.90
2018-11-13T10:22:48.312Z,75.63
2018-11-13T10:25:19.217Z,77.51
2018-11-13T10:27:48.649Z,76.43
2018-11-13T10:30:19.276Z,76.00
2018-11-13T10:32:48.791Z,75.67
2018-11-13T10:35:19.081Z,75.44
2018-11-13T10:37:48.127Z,75.80
2018-11-13T10:40:18.520Z,76.25
2018-11-13T10:42:47.441Z,75.77
2018-11-13T10:45:19.006Z,80.81
2018-11-13T10:47:48.000Z,76.88
2018-11-13T10:50:19.423Z,75.65
2018-11-13T10:52:48.535Z,77.03
2018-11-13T10:55:17.559Z,76.16
2018-11-13T10:57:46.558Z,76.06
2018-11-13T11:00:21.764Z,75.48
2018-11-13T11:04:59.855Z,75.48
2018-11-13T11:07:29.091Z,75.12
2018-11-13T11:09:58.098Z,75.21
2018-11-13T11:12:27.094Z,74.91
2018-11-13T11:14:56.062Z,75.25
2018-11-13T11:17:25.035Z,75.16
2018-11-13T11:19:54.022Z,74.69
2018-11-13T11:22:23.087Z,75.12
2018-11-13T11:24:52.068Z,74.90
2018-11-13T11:27:21.273Z,74.52
2018-11-13T11:29:50.648Z,77.37
2018-11-13T11:32:19.635Z,76.56
2018-11-13T11:34:48.640Z,77.07
2018-11-13T11:37:17.731Z,75.09
2018-11-13T11:39:47.200Z,75.64
2018-11-13T11:42:16.230Z,75.45
2018-11-13T11:44:45.255Z,79.13
2018-11-13T11:47:14.252Z,75.68
2018-11-13T11:49:43.255Z,74.56
2018-11-13T11:52:12.317Z,76.60
2018-11-13T11:54:41.391Z,74.89
2018-11-13T11:57:10.454Z,74.80
2018-11-13T11:59:39.790Z,75.07
2018-11-13T12:02:09.085Z,75.35
2018-11-13T12:04:38.082Z,75.50
2018-11-13T12:07:07.313Z,75.28
2018-11-13T12:09:36.318Z,74.85
2018-11-13T12:12:05.448Z,75.56
2018-11-13T12:14:34.482Z,74.81
2018-11-13T12:17:03.731Z,74.93
2018-11-13T12:19:33.331Z,78.04
2018-11-13T12:22:02.279Z,75.63
2018-11-13T12:24:31.339Z,73.85
2018-11-13T12:27:00.397Z,74.46
2018-11-13T12:29:29.376Z,73.29
2018-11-13T12:31:58.363Z,73.05
2018-11-13T12:34:27.396Z,72.87
2018-11-13T12:36:56.397Z,73.67
2018-11-13T12:39:25.368Z,72.58
2018-11-13T12:41:54.393Z,73.84
2018-11-13T12:44:23.622Z,73.04
2018-11-13T12:46:52.661Z,73.65
2018-11-13T12:49:21.616Z,73.82
2018-11-13T12:51:55.853Z,73.62
2018-11-13T12:54:24.850Z,72.96
2018-11-13T12:56:54.391Z,73.27
2018-11-13T12:59:23.706Z,72.88
2018-11-13T13:01:53.379Z,73.06
2018-11-13T13:04:21.944Z,75.85
2018-11-13T13:06:51.166Z,73.93
2018-11-13T13:09:20.494Z,72.95
2018-11-13T13:11:50.192Z,72.77
2018-11-13T13:14:19.477Z,73.08
2018-11-13T13:16:48.579Z,73.61
2018-11-13T13:19:17.605Z,72.40
2018-11-13T13:21:46.605Z,72.93
2018-11-13T13:24:15.628Z,72.90
2018-11-13T13:26:45.118Z,72.99
2018-11-13T13:29:14.113Z,72.50
2018-11-13T13:31:43.317Z,73.07
2018-11-13T13:34:12.978Z,72.88
2018-11-13T13:36:41.952Z,73.08
2018-11-13T13:39:11.024Z,73.27
2018-11-13T13:41:40.102Z,73.04
2018-11-13T13:44:09.232Z,72.84
2018-11-13T13:46:38.282Z,73.16
2018-11-13T13:49:07.267Z,73.33
2018-11-13T13:51:36.252Z,73.39
2018-11-13T13:54:05.552Z,75.62
2018-11-13T13:56:34.549Z,74.01
2018-11-13T13:59:03.625Z,73.32
2018-11-13T14:01:32.954Z,72.54
2018-11-13T14:04:02.232Z,75.60
2018-11-13T14:06:31.487Z,73.71
2018-11-13T14:09:00.724Z,72.85
2018-11-13T14:11:29.738Z,75.67
2018-11-13T14:13:58.768Z,75.52
2018-11-13T14:16:27.761Z,73.03
2018-11-13T14:18:56.755Z,73.28
2018-11-13T14:21:26.047Z,73.13
2018-11-13T14:23:55.021Z,72.06
2018-11-13T14:26:24.501Z,72.26
2018-11-13T14:28:53.494Z,73.37
2018-11-13T14:31:22.706Z,73.83
2018-11-13T14:33:51.755Z,73.65
2018-11-13T14:36:20.757Z,74.41
2018-11-13T14:38:49.735Z,73.73
2018-11-13T14:41:18.731Z,72.14
2018-11-13T14:43:47.922Z,74.53
2018-11-13T14:46:16.990Z,74.32
2018-11-13T14:48:46.239Z,72.33
2018-11-13T14:51:15.460Z,72.79
2018-11-13T14:53:44.866Z,72.03
2018-11-13T14:56:14.242Z,72.25
2018-11-13T14:58:43.271Z,71.30
2018-11-13T15:01:12.287Z,72.28
2018-11-13T15:03:41.359Z,72.82
2018-11-13T15:06:11.185Z,72.36
2018-11-13T15:08:40.289Z,72.49
2018-11-13T15:11:09.315Z,73.15
2018-11-13T15:13:38.663Z,72.67
2018-11-13T15:16:07.659Z,74.26
2018-11-13T15:18:36.655Z,74.57
2018-11-13T15:21:05.884Z,73.83
2018-11-13T15:23:34.871Z,73.00
2018-11-13T15:26:04.997Z,73.09
2018-11-13T15:28:34.066Z,73.47
2018-11-13T15:31:06.342Z,72.98
2018-11-13T15:33:37.925Z,73.28
2018-11-13T15:36:07.289Z,73.21
2018-11-13T15:38:36.306Z,73.13
2018-11-13T15:41:05.777Z,77.53
2018-11-13T15:43:37.592Z,74.24
2018-11-13T15:46:07.589Z,76.53
2018-11-13T15:48:37.365Z,73.66
2018-11-13T15:53:52.076Z,71.83
2018-11-13T15:56:21.254Z,73.39
2018-11-13T15:58:51.839Z,71.43
2018-11-13T16:01:29.996Z,70.49
2018-11-13T16:04:04.472Z,72.68
2018-11-13T16:12:16.782Z,71.87
2018-11-13T16:14:47.569Z,72.69
2018-11-13T16:17:16.947Z,71.40
2018-11-13T16:19:48.684Z,72.64
2018-11-13T16:22:22.758Z,70.21
2018-11-13T16:24:52.100Z,70.79
2018-11-13T16:27:22.714Z,69.27
2018-11-13T16:29:52.528Z,70.26
2018-11-13T16:32:23.202Z,69.40
2018-11-13T16:34:53.896Z,70.14
2018-11-13T16:37:25.864Z,73.61
2018-11-13T16:40:05.553Z,71.33
2018-11-13T16:42:45.576Z,69.50
2018-11-13T16:45:16.048Z,68.35
2018-11-13T16:47:45.722Z,69.07
2018-11-13T16:50:22.784Z,69.01
2018-11-13T16:52:52.872Z,69.64
2018-11-13T16:55:27.587Z,67.81
2018-11-13T16:57:57.509Z,69.52
2018-11-13T17:00:26.607Z,70.74
2018-11-13T17:02:56.764Z,73.57
2018-11-13T17:06:52.592Z,71.08
2018-11-13T17:09:22.943Z,70.65
2018-11-13T17:11:53.487Z,71.13
2018-11-13T17:14:22.578Z,68.80
2018-11-13T17:16:52.980Z,68.09
2018-11-13T17:19:22.960Z,67.41
2018-11-13T17:21:52.267Z,68.02
2018-11-13T17:24:23.645Z,68.00
2018-11-13T17:26:53.793Z,66.26
2018-11-13T17:29:23.913Z,65.59
2018-11-13T17:31:55.507Z,64.67
2018-11-13T17:34:25.035Z,67.44
2018-11-13T17:36:57.236Z,65.86
2018-11-13T17:39:27.242Z,68.40
2018-11-13T17:41:58.100Z,70.05
2018-11-13T17:44:30.892Z,68.18
2018-11-13T17:46:58.995Z,68.04
2018-11-13T17:49:29.773Z,66.81
2018-11-13T17:52:00.859Z,66.10
2018-11-13T17:54:30.918Z,66.38
2018-11-13T17:57:00.875Z,66.78
2018-11-13T17:59:30.406Z,66.60
2018-11-13T18:02:01.988Z,66.84
2018-11-13T18:04:32.047Z,66.37
2018-11-13T18:07:02.324Z,68.76
2018-11-13T18:09:32.567Z,66.76
2018-11-13T18:12:02.921Z,66.85
2018-11-13T18:14:33.055Z,65.89
2018-11-13T18:17:03.268Z,66.42
2018-11-13T18:19:33.371Z,66.42
2018-11-13T18:22:03.224Z,66.88
2018-11-13T18:24:33.255Z,66.94
2018-11-13T18:27:02.737Z,67.38
2018-11-13T18:29:31.956Z,67.26
2018-11-13T18:32:01.399Z,66.60
2018-11-13T18:34:30.362Z,66.35
2018-11-13T18:36:59.349Z,67.62
2018-11-13T18:39:28.509Z,70.27
2018-11-13T18:41:57.614Z,70.74
2018-11-13T18:44:26.607Z,70.18
2018-11-13T18:46:55.602Z,67.63
2018-11-13T18:49:24.678Z,67.82
2018-11-13T18:51:54.103Z,68.80
2018-11-13T18:54:23.280Z,67.68
2018-11-13T18:56:52.552Z,68.96
2018-11-13T18:59:21.668Z,71.31
2018-11-13T19:01:50.683Z,70.88
2018-11-13T19:04:19.876Z,70.07
2018-11-13T19:06:48.855Z,69.48
2018-11-13T19:09:18.430Z,69.39
2018-11-13T19:11:47.986Z,68.24
2018-11-13T19:14:16.879Z,70.48
2018-11-13T19:16:46.130Z,70.71
2018-11-13T19:19:15.132Z,73.39
2018-11-13T19:21:44.264Z,69.64
2018-11-13T19:24:13.512Z,69.27
2018-11-13T19:26:43.149Z,69.08
2018-11-13T19:29:12.270Z,68.43
2018-11-13T19:31:41.404Z,67.98
2018-11-13T19:34:10.552Z,69.00
2018-11-13T19:36:39.820Z,70.40
2018-11-13T19:39:11.180Z,68.54
2018-11-13T19:41:40.402Z,70.00
2018-11-13T19:44:09.488Z,71.70
2018-11-13T19:46:38.688Z,70.54
2018-11-13T19:49:08.045Z,69.65
2018-11-13T19:51:37.212Z,70.29
2018-11-13T19:54:06.855Z,71.06
2018-11-13T19:56:36.143Z,70.29
2018-11-13T19:59:05.640Z,70.89
2018-11-13T20:01:34.815Z,68.70
2018-11-13T20:04:04.010Z,70.10
2018-11-13T20:06:33.481Z,69.48
2018-11-13T20:09:05.460Z,69.10
2018-11-13T20:11:35.208Z,73.47
2018-11-13T20:14:06.224Z,71.30
2018-11-13T20:16:35.980Z,68.66
2018-11-13T20:19:07.667Z,69.22
2018-11-13T20:21:37.378Z,71.56
2018-11-13T20:24:07.175Z,72.65
2018-11-13T20:26:36.324Z,71.93
2018-11-13T20:29:07.023Z,70.72
2018-11-13T20:31:37.057Z,71.79
2018-11-13T20:34:07.070Z,71.00
2018-11-13T20:36:37.398Z,71.59
2018-11-13T20:39:12.184Z,69.89
2018-11-13T20:41:43.623Z,70.80
2018-11-13T20:44:13.696Z,73.01
2018-11-13T20:46:43.405Z,71.96
2018-11-13T20:49:12.971Z,69.47
2018-11-13T20:51:42.237Z,69.77
2018-11-13T20:54:13.010Z,72.29
2018-11-13T20:56:43.569Z,71.85
2018-11-13T20:59:14.179Z,74.29
2018-11-13T21:01:43.963Z,73.48
2018-11-13T21:04:14.218Z,70.04
2018-11-13T21:06:43.246Z,71.84
2018-11-13T21:09:13.525Z,72.66
2018-11-13T21:11:44.326Z,73.94
2018-11-13T21:14:13.515Z,71.06
2018-11-13T21:16:43.491Z,69.98
2018-11-13T21:19:14.150Z,69.59
2018-11-13T21:21:45.083Z,73.13
2018-11-13T21:24:14.793Z,73.46
2018-11-13T21:26:44.156Z,70.05
2018-11-13T21:29:13.896Z,75.07
2018-11-13T21:31:44.244Z,72.03
2018-11-13T21:34:15.377Z,71.85
2018-11-13T21:36:45.927Z,74.22
2018-11-13T21:39:15.255Z,70.69
2018-11-13T21:41:45.333Z,72.60
2018-11-13T21:44:15.914Z,70.52
2018-11-13T21:46:45.273Z,71.80
2018-11-13T21:49:15.235Z,69.38
2018-11-13T21:51:45.920Z,70.10
2018-11-13T21:54:16.495Z,69.58
2018-11-13T21:56:46.988Z,70.20
2018-11-13T21:59:17.751Z,69.37
2018-11-13T22:01:47.215Z,73.87
2018-11-13T22:04:17.132Z,72.82
2018-11-13T22:06:47.425Z,73.01
2018-11-13T22:09:17.492Z,70.91
2018-11-13T22:11:46.543Z,71.02
2018-11-13T22:14:17.268Z,71.88
2018-11-13T22:16:46.346Z,70.60
2018-11-13T22:19:15.621Z,69.29
2018-11-13T22:21:45.644Z,68.77
2018-11-13T22:24:15.248Z,68.60
2018-11-13T22:26:45.736Z,68.71
2018-11-13T22:29:14.900Z,70.16
2018-11-13T22:31:43.772Z,71.60
2018-11-13T22:34:14.004Z,73.08
2018-11-13T22:36:43.639Z,71.85
2018-11-13T22:39:13.490Z,73.33
2018-11-13T22:41:42.645Z,72.73
2018-11-13T22:44:13.058Z,73.25
2018-11-13T22:46:42.373Z,74.18
2018-11-13T22:49:12.725Z,73.92
2018-11-13T22:51:43.182Z,73.34
2018-11-13T22:54:13.708Z,73.00
2018-11-13T22:56:43.684Z,68.64
2018-11-13T22:59:12.655Z,70.63
2018-11-13T23:01:41.881Z,69.04
2018-11-13T23:04:11.659Z,68.59
2018-11-13T23:06:40.874Z,70.46
2018-11-13T23:09:12.487Z,69.62
2018-11-13T23:11:41.681Z,70.81
2018-11-13T23:14:11.107Z,69.44
2018-11-13T23:16:40.319Z,68.29
2018-11-13T23:19:09.658Z,67.50
2018-11-13T23:21:38.630Z,68.87
2018-11-13T23:24:07.999Z,68.58
2018-11-13T23:26:37.242Z,71.03
2018-11-13T23:29:06.871Z,70.73
2018-11-13T23:31:35.977Z,69.85
2018-11-13T23:34:05.481Z,70.25
2018-11-13T23:36:35.115Z,68.80
2018-11-13T23:39:05.237Z,71.33
2018-11-13T23:41:34.622Z,68.35
2018-11-13T23:44:03.719Z,68.50
2018-11-13T23:46:32.837Z,69.08
2018-11-13T23:49:02.018Z,67.85
2018-11-13T23:51:31.055Z,69.78
2018-11-13T23:54:00.165Z,67.95
2018-11-13T23:56:29.426Z,69.38
2018-11-13T23:58:58.358Z,68.29
